Time;durP1;ratioP1;P1;durP2;ratioP2;P2;SDS_P1;SDS_P2;PMS_P1;PMS_P2;Temp;Humidity;BMP_temperature;BMP_pressure;BME280_temperature;BME280_humidity;BME280_pressure;Samples;Min_cycle;Max_cycle;Signal;HPM_P1;HPM_P2
2023/07/09 00:02:18;;;;;;;5.60;5.20;;;;;;;16.24;100.00;95600.97;5033790;28;20134;-87
2023/07/09 00:04:44;;;;;;;5.60;5.10;;;;;;;16.25;100.00;95707.13;5041650;28;20470;-91
2023/07/09 00:07:21;;;;;;;5.03;4.47;;;;;;;16.28;100.00;95719.81;5039675;28;20063;-90
2023/07/09 00:09:47;;;;;;;5.25;4.82;;;;;;;16.22;100.00;95710.94;5011184;28;20052;-88
2023/07/09 00:12:15;;;;;;;8.13;4.88;;;;;;;16.21;100.00;95693.63;5038803;28;20048;-88
2023/07/09 00:14:41;;;;;;;5.55;5.00;;;;;;;16.14;100.00;95692.78;5039408;28;20032;-87
2023/07/09 00:17:21;;;;;;;6.55;4.47;;;;;;;16.11;100.00;95693.16;5037926;28;20021;-88
2023/07/09 00:19:47;;;;;;;9.07;5.03;;;;;;;16.09;100.00;95702.94;5039373;28;20155;-86
2023/07/09 00:22:18;;;;;;;6.22;4.82;;;;;;;16.04;100.00;95713.16;5040434;28;20615;-87
2023/07/09 00:24:47;;;;;;;8.90;5.20;;;;;;;15.87;100.00;95724.81;5038339;28;20478;-89
2023/07/09 00:27:14;;;;;;;9.70;4.85;;;;;;;15.78;100.00;95768.53;5039649;28;20079;-89
2023/07/09 00:29:41;;;;;;;10.18;5.43;;;;;;;15.77;100.00;95766.91;5037169;28;20037;-88
2023/07/09 00:32:20;;;;;;;6.40;5.30;;;;;;;15.68;100.00;95765.41;5039091;28;20025;-89
2023/07/09 00:34:49;;;;;;;7.07;5.38;;;;;;;15.75;100.00;95822.94;5022902;28;20071;-89
2023/07/09 00:37:22;;;;;;;6.15;4.85;;;;;;;15.55;100.00;95811.41;5021266;28;20059;-89
2023/07/09 00:39:48;;;;;;;5.25;4.85;;;;;;;15.45;100.00;95823.88;5039238;28;20410;-89
2023/07/09 00:42:17;;;;;;;6.18;5.00;;;;;;;15.37;100.00;95819.59;5037398;28;20052;-89
2023/07/09 00:44:45;;;;;;;6.53;5.38;;;;;;;15.47;100.00;95850.66;5022600;28;20498;-89
2023/07/09 00:47:44;;;;;;;5.43;4.50;;;;;;;15.44;100.00;95853.63;5020843;28;20532;-91
2023/07/09 00:50:53;;;;;;;6.65;5.18;;;;;;;15.34;100.00;95847.84;5037729;28;20037;-92
2023/07/09 00:53:39;;;;;;;7.05;5.00;;;;;;;15.00;100.00;95781.25;5030284;28;20814;-88
2023/07/09 00:56:09;;;;;;;5.28;4.78;;;;;;;15.07;100.00;95800.44;5039355;28;20033;-91
2023/07/09 00:58:37;;;;;;;9.60;4.68;;;;;;;15.06;100.00;95798.00;5020340;28;20036;-90
2023/07/09 01:01:06;;;;;;;10.70;4.97;;;;;;;14.99;100.00;95804.94;5038941;28;20029;-89
2023/07/09 01:03:40;;;;;;;8.18;4.95;;;;;;;14.75;100.00;95818.97;5037080;28;20029;-89
2023/07/09 01:06:06;;;;;;;16.77;5.38;;;;;;;14.89;100.00;95856.53;5036911;28;20434;-90
2023/07/09 01:08:36;;;;;;;8.23;4.95;;;;;;;14.68;100.00;95842.34;5019488;28;20036;-90
2023/07/09 01:11:02;;;;;;;11.57;5.60;;;;;;;14.59;100.00;95855.59;5038219;28;20039;-87
2023/07/09 01:13:32;;;;;;;6.10;4.88;;;;;;;14.44;100.00;95872.97;5045529;28;20021;-87
2023/07/09 01:18:39;;;;;;;5.90;5.18;;;;;;;14.29;100.00;95908.53;5080267;28;20223;-87
2023/07/09 01:21:15;;;;;;;9.73;5.60;;;;;;;14.21;100.00;95925.00;5047172;28;20396;-88
2023/07/09 01:23:49;;;;;;;5.82;5.32;;;;;;;14.39;100.00;95937.81;5046796;28;20119;-88
2023/07/09 01:26:18;;;;;;;5.60;4.55;;;;;;;14.33;100.00;95907.19;5063935;28;20020;-86
2023/07/09 01:28:43;;;;;;;8.18;5.05;;;;;;;14.15;100.00;95916.06;5061906;28;20111;-88
2023/07/09 01:31:11;;;;;;;5.72;4.38;;;;;;;14.10;100.00;95910.53;5064147;28;20527;-89
2023/07/09 01:33:39;;;;;;;9.15;5.18;;;;;;;14.10;100.00;95913.13;5045800;28;20060;-90
2023/07/09 01:36:07;;;;;;;8.00;5.13;;;;;;;14.07;100.00;95920.47;5082207;28;20086;-90
2023/07/09 01:38:33;;;;;;;7.28;5.15;;;;;;;14.11;100.00;95927.81;5046531;28;20036;-89
2023/07/09 01:40:59;;;;;;;8.32;5.70;;;;;;;14.11;100.00;95935.63;5080983;28;20040;-88
2023/07/09 01:43:26;;;;;;;10.43;5.80;;;;;;;14.00;100.00;95933.34;5082165;28;20537;-88
2023/07/09 01:45:51;;;;;;;7.25;5.85;;;;;;;13.94;100.00;95948.84;5080426;28;20063;-88
2023/07/09 01:48:20;;;;;;;7.20;5.80;;;;;;;13.95;100.00;95956.50;5083151;28;20052;-91
2023/07/09 01:50:49;;;;;;;7.13;5.33;;;;;;;13.95;100.00;95946.06;5078597;28;20039;-88
2023/07/09 01:53:16;;;;;;;6.75;5.40;;;;;;;13.76;100.00;95943.84;5080030;28;20020;-85
2023/07/09 01:55:42;;;;;;;7.45;5.60;;;;;;;13.71;100.00;95943.50;5078875;28;20408;-88
2023/07/09 01:58:08;;;;;;;8.32;5.65;;;;;;;13.67;100.00;95952.66;5079068;28;20019;-88
2023/07/09 02:00:37;;;;;;;9.15;5.68;;;;;;;13.48;100.00;95951.22;5081739;28;20043;-88
2023/07/09 02:03:04;;;;;;;6.05;5.15;;;;;;;13.58;100.00;95964.06;5064488;28;20020;-90
2023/07/09 02:05:31;;;;;;;8.40;5.03;;;;;;;13.65;100.00;95959.78;5081496;28;20035;-90
2023/07/09 02:07:57;;;;;;;7.20;5.35;;;;;;;13.52;100.00;95939.47;5058997;28;20112;-89
2023/07/09 02:10:22;;;;;;;8.10;6.20;;;;;;;13.49;100.00;95941.59;5085557;28;20611;-90
2023/07/09 02:12:48;;;;;;;5.57;5.07;;;;;;;13.36;100.00;95949.06;5084354;28;20996;-87
2023/07/09 02:15:15;;;;;;;11.10;5.35;;;;;;;13.32;100.00;95981.63;5083831;28;20019;-92
2023/07/09 02:17:40;;;;;;;7.22;5.68;;;;;;;13.37;100.00;95985.34;5086098;28;20048;-90
2023/07/09 02:20:07;;;;;;;6.55;5.88;;;;;;;13.25;100.00;95988.44;5065038;28;20031;-88
2023/07/09 02:22:33;;;;;;;6.68;6.05;;;;;;;13.26;100.00;96003.06;5086208;28;20054;-90
2023/07/09 02:24:59;;;;;;;7.18;5.53;;;;;;;13.27;100.00;96007.28;5065631;28;20528;-87
2023/07/09 02:27:24;;;;;;;9.63;5.55;;;;;;;13.21;100.00;96013.94;5067320;28;20036;-87
2023/07/09 02:29:50;;;;;;;10.13;5.35;;;;;;;13.18;100.00;96020.28;5083914;28;20070;-92
2023/07/09 02:32:23;;;;;;;6.40;4.85;;;;;;;13.15;100.00;96014.59;5069223;28;20043;-89
2023/07/09 02:34:52;;;;;;;8.00;5.78;;;;;;;13.20;100.00;96023.53;5067095;28;20116;-88
2023/07/09 02:37:22;;;;;;;7.22;5.97;;;;;;;13.03;100.00;96014.06;5079655;28;20028;-87
2023/07/09 02:39:47;;;;;;;6.43;5.68;;;;;;;13.06;100.00;96047.56;5056429;28;20230;-87
2023/07/09 02:42:14;;;;;;;7.97;6.25;;;;;;;12.97;100.00;96063.28;5061296;28;20538;-89
2023/07/09 02:44:41;;;;;;;8.43;6.30;;;;;;;12.92;100.00;96084.56;5083623;28;20024;-86
2023/07/09 02:47:13;;;;;;;12.48;7.13;;;;;;;12.80;100.00;96090.19;5083507;28;20055;-87
2023/07/09 02:49:38;;;;;;;7.63;7.00;;;;;;;12.76;100.00;96107.06;5251524;22;20031;-81
2023/07/09 02:52:05;;;;;;;7.88;6.82;;;;;;;12.75;100.00;96108.06;5137068;28;20019;-80
2023/07/09 02:54:30;;;;;;;8.05;7.22;;;;;;;12.80;100.00;96122.22;5107622;28;20118;-85
2023/07/09 02:56:55;;;;;;;7.45;6.70;;;;;;;12.81;100.00;96129.00;5089257;28;20147;-94
2023/07/09 02:59:21;;;;;;;9.38;8.20;;;;;;;12.89;100.00;96130.84;5087426;28;20488;-85
2023/07/09 03:01:47;;;;;;;6.80;6.30;;;;;;;12.89;100.00;96126.47;5104395;28;20085;-88
2023/07/09 03:04:14;;;;;;;8.07;6.53;;;;;;;12.82;100.00;96129.84;5101069;28;20186;-85
2023/07/09 03:06:40;;;;;;;6.18;5.70;;;;;;;12.92;100.00;96143.53;5104249;28;20026;-86
2023/07/09 03:09:06;;;;;;;10.02;6.88;;;;;;;12.91;100.00;96137.53;5087235;28;20031;-88
2023/07/09 03:11:33;;;;;;;9.05;7.63;;;;;;;12.89;100.00;96129.06;5104521;28;20027;-87
2023/07/09 03:14:01;;;;;;;8.75;7.50;;;;;;;12.94;100.00;96123.41;5105167;28;20035;-85
2023/07/09 03:16:31;;;;;;;9.13;8.32;;;;;;;12.96;100.00;96114.47;5084955;28;20118;-87
2023/07/09 03:18:57;;;;;;;9.18;8.32;;;;;;;12.94;100.00;96103.41;5098525;28;20030;-82
2023/07/09 03:21:24;;;;;;;8.90;6.53;;;;;;;12.82;100.00;96096.84;5103503;28;20027;-82
2023/07/09 03:23:50;;;;;;;8.90;6.60;;;;;;;12.88;100.00;96100.63;5110541;28;20451;-84
2023/07/09 03:26:15;;;;;;;7.28;6.55;;;;;;;12.93;100.00;96093.19;5091925;28;20038;-87
2023/07/09 03:28:40;;;;;;;6.55;5.72;;;;;;;13.03;100.00;96076.47;5103530;28;20038;-89
2023/07/09 03:31:06;;;;;;;8.13;5.63;;;;;;;12.99;100.00;96043.13;5106285;28;20027;-81
2023/07/09 03:33:32;;;;;;;7.28;6.53;;;;;;;13.08;100.00;96031.78;5095061;28;20581;-84
2023/07/09 03:35:57;;;;;;;5.82;5.18;;;;;;;13.55;100.00;95998.22;5089273;28;20023;-86
2023/07/09 03:38:23;;;;;;;6.85;5.38;;;;;;;13.65;100.00;95902.50;5102809;28;20036;-87
2023/07/09 03:40:53;;;;;;;8.15;6.07;;;;;;;13.54;100.00;95867.25;5105108;28;20508;-89
2023/07/09 03:43:19;;;;;;;5.65;5.15;;;;;;;13.88;100.00;95846.16;5103579;28;20412;-89
2023/07/09 03:45:46;;;;;;;16.05;7.32;;;;;;;13.90;100.00;95802.50;5103383;28;20076;-89
2023/07/09 03:48:12;;;;;;;8.00;7.15;;;;;;;13.89;100.00;95795.69;5103388;28;20024;-89
2023/07/09 03:50:38;;;;;;;10.38;8.98;;;;;;;13.87;100.00;95786.44;5085839;28;20046;-90
2023/07/09 03:53:03;;;;;;;9.77;8.73;;;;;;;14.05;100.00;95795.63;5084238;28;20028;-92
2023/07/09 03:55:29;;;;;;;12.23;11.27;;;;;;;14.16;100.00;95790.00;5102589;28;20023;-90
2023/07/09 03:57:55;;;;;;;9.68;8.82;;;;;;;14.26;100.00;95776.75;5105055;28;20109;-90
2023/07/09 04:00:21;;;;;;;9.82;7.95;;;;;;;14.48;100.00;95802.06;5087232;28;20106;-89
2023/07/09 04:02:47;;;;;;;7.85;6.65;;;;;;;14.55;100.00;95766.50;5103817;28;20096;-85
2023/07/09 04:05:13;;;;;;;7.07;6.32;;;;;;;14.40;100.00;95742.16;5102967;28;20016;-85
2023/07/09 04:07:38;;;;;;;9.93;6.00;;;;;;;14.35;100.00;95744.50;5103383;28;20027;-84
2023/07/09 04:10:05;;;;;;;8.00;5.38;;;;;;;14.46;100.00;95751.09;5103749;28;20449;-85
2023/07/09 04:12:31;;;;;;;6.88;5.45;;;;;;;14.61;100.00;95752.75;5101392;28;20032;-85
2023/07/09 04:14:56;;;;;;;9.63;6.78;;;;;;;14.66;100.00;95745.22;5104007;28;20406;-85
2023/07/09 04:17:23;;;;;;;5.90;5.40;;;;;;;14.91;100.00;95756.25;5102916;27;20480;-85
2023/07/09 04:19:49;;;;;;;4.97;4.55;;;;;;;15.26;100.00;95713.81;5102638;28;20016;-85
2023/07/09 04:22:14;;;;;;;8.25;4.93;;;;;;;15.04;100.00;95667.75;5102662;28;20076;-83
2023/07/09 04:24:40;;;;;;;5.90;5.35;;;;;;;15.71;100.00;95673.63;5103540;28;20032;-84
2023/07/09 04:27:06;;;;;;;7.38;3.75;;;;;;;19.01;100.00;95398.56;5102142;28;20392;-83
2023/07/09 04:29:35;;;;;;;7.15;4.18;;;;;;;20.65;100.00;95266.22;5102341;28;20369;-83
2023/07/09 04:32:21;;;;;;;6.38;3.50;;;;;;;21.38;100.00;95253.50;5102098;28;20028;-85
2023/07/09 04:34:47;;;;;;;4.30;3.90;;;;;;;21.91;100.00;95234.09;5083329;28;20077;-85
2023/07/09 04:37:13;;;;;;;3.92;3.28;;;;;;;22.43;100.00;95240.09;5103642;28;20036;-86
2023/07/09 04:39:40;;;;;;;6.38;3.35;;;;;;;22.97;100.00;95246.59;5096084;28;20031;-83
2023/07/09 04:42:06;;;;;;;4.47;4.07;;;;;;;22.84;100.00;95242.41;5091647;28;20042;-85
2023/07/09 04:44:32;;;;;;;3.80;3.50;;;;;;;22.59;100.00;95245.41;5102154;28;20046;-83
2023/07/09 04:46:57;;;;;;;5.80;3.38;;;;;;;22.95;100.00;95241.56;5101585;28;20027;-85
2023/07/09 04:49:23;;;;;;;4.47;3.50;;;;;;;23.16;100.00;95255.88;5088653;28;20020;-83
2023/07/09 04:51:48;;;;;;;4.60;3.35;;;;;;;24.05;100.00;95257.38;5088567;28;20039;-82
2023/07/09 04:54:14;;;;;;;5.18;3.45;;;;;;;24.40;89.89;95262.31;5101641;28;20027;-82
2023/07/09 04:56:44;;;;;;;3.50;3.20;;;;;;;25.07;87.60;95260.09;5102015;28;20032;-82
2023/07/09 04:59:09;;;;;;;6.05;3.30;;;;;;;25.73;80.27;95249.91;5099991;28;20039;-82
2023/07/09 05:01:35;;;;;;;3.65;3.10;;;;;;;26.03;80.44;95257.25;5101743;28;20023;-80
2023/07/09 05:04:00;;;;;;;3.30;3.10;;;;;;;26.31;77.55;95250.72;5101701;28;20023;-79
2023/07/09 05:06:26;;;;;;;3.88;3.20;;;;;;;26.77;73.67;95249.78;5102804;28;20062;-80
2023/07/09 05:08:51;;;;;;;5.18;3.55;;;;;;;26.75;73.95;95249.22;5101588;28;20473;-81
2023/07/09 05:11:17;;;;;;;5.10;3.45;;;;;;;26.69;74.18;95251.06;5101728;28;20035;-82
2023/07/09 05:13:42;;;;;;;3.28;3.08;;;;;;;26.98;72.54;95253.25;5087884;28;20072;-81
2023/07/09 05:16:08;;;;;;;5.28;3.13;;;;;;;27.36;69.37;95252.72;5102286;28;20030;-81
2023/07/09 05:18:33;;;;;;;5.85;3.50;;;;;;;27.45;65.33;95240.50;5100972;28;20507;-83
2023/07/09 05:20:59;;;;;;;3.23;2.97;;;;;;;27.97;68.92;95244.59;5102322;28;20020;-81
2023/07/09 05:23:25;;;;;;;4.40;2.67;;;;;;;28.43;62.68;95242.56;5101956;28;20039;-82
2023/07/09 05:25:58;;;;;;;4.93;3.10;;;;;;;28.63;62.85;95251.28;5101626;28;20451;-83
2023/07/09 05:28:25;;;;;;;8.05;3.17;;;;;;;29.06;60.12;95249.66;5102545;28;20019;-80
2023/07/09 05:30:51;;;;;;;3.22;2.80;;;;;;;29.16;58.87;95244.22;5100321;28;20031;-81
2023/07/09 05:33:18;;;;;;;4.90;2.43;;;;;;;30.17;54.88;95248.59;5102440;28;20024;-82
2023/07/09 05:35:43;;;;;;;;;;;;;;;30.80;52.48;95251.78;5100402;28;20465;-84
2023/07/09 05:38:09;;;;;;;;;;;;;;;30.52;52.69;95255.41;5100259;28;20017;-83
2023/07/09 05:40:34;;;;;;;5.80;2.47;;;;;;;30.89;52.07;95248.47;5099025;28;19939;-83
2023/07/09 05:42:59;;;;;;;4.23;2.70;;;;;;;31.80;48.25;95250.44;5091412;28;20127;-79
2023/07/09 05:45:25;;;;;;;2.83;2.63;;;;;;;31.94;47.94;95253.94;5095794;28;20039;-80
2023/07/09 05:47:50;;;;;;;2.80;2.53;;;;;;;32.64;46.43;95251.75;5086729;28;20117;-80
2023/07/09 05:50:16;;;;;;;5.80;2.40;;;;;;;32.39;46.96;95254.94;5094477;28;20202;-83
2023/07/09 05:52:41;;;;;;;2.90;2.70;;;;;;;32.71;46.92;95260.19;5099896;28;20047;-82
2023/07/09 05:55:07;;;;;;;3.33;3.00;;;;;;;32.83;43.36;95252.38;5096815;28;20020;-81
2023/07/09 05:57:32;;;;;;;3.43;2.93;;;;;;;33.62;42.57;95254.56;5091054;28;20045;-84
2023/07/09 05:59:58;;;;;;;3.70;3.37;;;;;;;33.62;43.96;95254.56;5092673;28;20469;-84
2023/07/09 06:02:23;;;;;;;5.07;3.00;;;;;;;33.50;44.47;95247.03;5100525;28;20469;-82
2023/07/09 06:04:49;;;;;;;5.37;3.27;;;;;;;33.34;44.03;95252.00;5100071;28;20038;-79
2023/07/09 06:07:15;;;;;;;4.50;3.28;;;;;;;34.67;42.61;95247.38;5101186;28;20019;-81
2023/07/09 06:09:41;;;;;;;3.85;3.05;;;;;;;35.29;40.79;95237.06;5096949;28;20035;-81
2023/07/09 06:12:07;;;;;;;3.72;2.90;;;;;;;34.28;41.31;95234.75;5093095;28;20035;-82
2023/07/09 06:14:33;;;;;;;4.10;3.15;;;;;;;34.30;42.21;95230.63;5097200;28;20425;-79
2023/07/09 06:16:59;;;;;;;3.10;2.90;;;;;;;34.80;42.82;95241.03;5100530;28;20023;-78
2023/07/09 06:19:25;;;;;;;3.55;3.10;;;;;;;34.94;42.55;95230.88;5100250;28;20032;-80
2023/07/09 06:21:51;;;;;;;3.73;3.37;;;;;;;35.71;41.31;95233.50;5099911;28;20509;-79
2023/07/09 06:24:16;;;;;;;3.70;3.40;;;;;;;34.63;42.60;95241.00;5098981;28;20066;-80
2023/07/09 06:26:42;;;;;;;4.20;3.47;;;;;;;34.99;43.18;95240.72;5086594;28;20397;-83
2023/07/09 06:29:07;;;;;;;4.18;3.80;;;;;;;34.61;42.93;95240.53;5095731;28;20131;-78
2023/07/09 06:31:33;;;;;;;7.32;3.70;;;;;;;34.08;44.14;95251.44;5084293;28;20043;-80
2023/07/09 06:33:59;;;;;;;6.18;3.42;;;;;;;31.02;50.07;95250.44;5083341;28;20051;-80
2023/07/09 06:36:27;;;;;;;4.93;3.53;;;;;;;28.97;56.09;95234.50;5085965;28;20520;-83
2023/07/09 06:38:53;;;;;;;4.80;3.80;;;;;;;29.06;60.86;95238.97;5093476;28;20576;-82
2023/07/09 06:41:19;;;;;;;4.97;3.30;;;;;;;28.55;59.40;95233.16;5098860;28;20110;-82
2023/07/09 06:43:45;;;;;;;4.25;3.60;;;;;;;28.70;59.93;95235.00;5097771;28;20114;-80
2023/07/09 06:46:12;;;;;;;5.90;3.50;;;;;;;30.06;60.22;95239.09;5099408;28;20117;-81
2023/07/09 06:48:38;;;;;;;;;;;;;;;32.44;45.98;95229.88;5092830;28;20078;-81
2023/07/09 06:51:03;;;;;;;4.17;3.33;;;;;;;33.83;42.38;95234.91;5094493;28;19919;-81
2023/07/09 06:53:29;;;;;;;5.43;3.80;;;;;;;34.48;44.19;95236.84;5098720;28;20408;-82
2023/07/09 06:55:58;;;;;;;4.40;3.00;;;;;;;33.99;43.54;95234.47;5101405;28;20027;-88
2023/07/09 06:58:25;;;;;;;4.35;3.40;;;;;;;30.60;52.12;95229.91;5102480;28;20020;-82
2023/07/09 07:00:51;;;;;;;5.38;3.47;;;;;;;28.62;53.73;95227.53;5103917;28;20042;-81
2023/07/09 07:03:17;;;;;;;4.55;3.30;;;;;;;28.70;60.12;95221.66;5104719;28;20023;-86
2023/07/09 07:05:48;;;;;;;5.18;3.65;;;;;;;28.91;61.04;95230.28;5103489;28;20036;-84
2023/07/09 07:08:15;;;;;;;6.50;3.25;;;;;;;28.65;60.84;95225.13;5103962;28;20032;-81
2023/07/09 07:10:41;;;;;;;9.27;3.55;;;;;;;28.89;62.81;95229.78;5098696;28;20108;-81
2023/07/09 07:13:07;;;;;;;7.40;3.70;;;;;;;28.92;60.77;95222.03;5106481;28;20336;-93
2023/07/09 07:15:32;;;;;;;9.05;4.03;;;;;;;32.00;53.02;95225.13;5104900;28;20140;-83
2023/07/09 07:17:57;;;;;;;5.93;3.55;;;;;;;30.27;55.14;95226.28;5103479;28;20032;-87
2023/07/09 07:20:23;;;;;;;5.65;3.60;;;;;;;28.04;64.59;95226.47;5104532;28;20482;-95
2023/07/09 07:22:49;;;;;;;4.47;3.50;;;;;;;27.70;64.85;95221.81;5103686;28;20110;-95
2023/07/09 07:25:15;;;;;;;6.18;3.65;;;;;;;27.65;67.54;95218.34;5109475;28;20031;-91
2023/07/09 07:27:40;;;;;;;5.70;3.70;;;;;;;27.55;68.23;95197.88;5098655;28;20127;-82
2023/07/09 07:30:10;;;;;;;4.15;3.75;;;;;;;27.06;65.67;95210.97;5069098;28;20039;-95
2023/07/09 07:32:38;;;;;;;7.30;3.72;;;;;;;27.82;70.46;95210.84;5093205;28;20063;-90
2023/07/09 07:35:03;;;;;;;4.38;3.47;;;;;;;27.62;71.88;95213.56;5098177;28;20039;-91
2023/07/09 07:37:29;;;;;;;4.15;3.63;;;;;;;27.32;70.85;95189.66;5093010;28;20489;-81
2023/07/09 07:39:54;;;;;;;5.28;3.08;;;;;;;27.92;71.90;95208.16;5102620;28;20115;-86
2023/07/09 07:42:20;;;;;;;5.10;3.53;;;;;;;27.14;65.19;95201.66;5102927;28;20023;-84
2023/07/09 07:44:46;;;;;;;3.58;3.25;;;;;;;27.61;71.58;95194.13;5103186;28;20019;-87
2023/07/09 07:47:11;;;;;;;3.92;3.53;;;;;;;28.02;73.07;95194.78;5097391;28;20031;-87
2023/07/09 07:49:37;;;;;;;3.55;3.30;;;;;;;28.04;65.43;95195.31;5090094;28;20047;-80
2023/07/09 07:52:03;;;;;;;4.40;3.80;;;;;;;28.04;67.39;95195.31;5101681;28;20024;-85
2023/07/09 07:54:31;;;;;;;4.30;3.30;;;;;;;28.16;72.98;95200.31;5102116;28;20507;-80
2023/07/09 07:56:57;;;;;;;3.63;2.83;;;;;;;28.04;64.34;95199.81;5101448;28;20020;-84
2023/07/09 07:59:23;;;;;;;6.45;3.22;;;;;;;27.88;62.10;95190.31;5102566;28;20096;-81
2023/07/09 08:01:49;;;;;;;5.40;3.25;;;;;;;28.12;64.03;95197.44;5102250;28;20458;-85
2023/07/09 08:04:15;;;;;;;5.40;2.75;;;;;;;28.18;61.54;95195.53;5102807;28;20062;-80
2023/07/09 08:06:40;;;;;;;3.80;2.80;;;;;;;28.10;64.07;95194.22;5095166;28;20028;-82
2023/07/09 08:09:06;;;;;;;4.20;2.90;;;;;;;27.80;62.90;95194.34;5102511;28;20065;-82
2023/07/09 08:11:32;;;;;;;3.38;3.08;;;;;;;28.03;64.61;95195.59;5101067;28;20031;-79
2023/07/09 08:13:58;;;;;;;6.70;2.83;;;;;;;28.33;66.89;95186.66;5102527;28;20023;-83
2023/07/09 08:16:23;;;;;;;2.53;2.33;;;;;;;27.79;63.59;95192.75;5101957;28;20034;-81
2023/07/09 08:18:51;;;;;;;4.32;2.38;;;;;;;28.27;64.01;95192.03;5102204;28;20059;-81
2023/07/09 08:21:17;;;;;;;3.72;2.78;;;;;;;28.38;65.20;95178.63;5102369;28;20035;-82
2023/07/09 08:23:42;;;;;;;2.80;2.60;;;;;;;28.24;62.64;95173.13;5101473;28;20373;-83
2023/07/09 08:26:08;;;;;;;4.38;2.92;;;;;;;28.52;63.30;95163.59;5102310;28;20042;-82
2023/07/09 08:28:34;;;;;;;3.10;2.78;;;;;;;28.62;62.13;95166.19;5100904;28;20198;-81
2023/07/09 08:31:00;;;;;;;3.13;2.83;;;;;;;28.43;62.32;95165.25;5102266;28;20088;-81
2023/07/09 08:33:26;;;;;;;6.38;3.10;;;;;;;28.10;61.57;95170.25;5100942;28;20032;-83
2023/07/09 08:35:52;;;;;;;5.53;2.92;;;;;;;28.40;63.97;95166.63;5102091;28;20106;-83
2023/07/09 08:38:18;;;;;;;2.75;2.55;;;;;;;28.26;64.80;95162.97;5100980;28;20027;-80
2023/07/09 08:41:08;;;;;;;4.40;2.67;;;;;;;28.13;60.00;95171.56;5101382;28;20452;-82
2023/07/09 08:43:50;;;;;;;4.63;2.58;;;;;;;27.85;65.04;95170.34;5099107;28;20628;-81
2023/07/09 08:46:34;;;;;;;4.75;2.95;;;;;;;28.04;66.95;95175.84;5099429;28;20028;-85
2023/07/09 08:49:02;;;;;;;3.17;2.97;;;;;;;28.04;62.95;95175.84;5102377;28;20057;-82
2023/07/09 08:51:39;;;;;;;2.85;2.65;;;;;;;28.04;64.09;95163.31;5101619;28;20396;-82
2023/07/09 08:54:21;;;;;;;3.75;2.88;;;;;;;28.25;64.67;95174.72;5100684;28;20106;-80
2023/07/09 08:56:46;;;;;;;5.05;3.00;;;;;;;28.26;63.01;95170.97;5101025;28;20048;-86
2023/07/09 08:59:15;;;;;;;6.05;3.38;;;;;;;28.22;62.74;95164.63;5098529;28;20028;-84
2023/07/09 09:01:49;;;;;;;4.47;3.25;;;;;;;28.30;63.77;95164.00;5101946;28;20027;-81
2023/07/09 09:04:27;;;;;;;3.70;3.40;;;;;;;28.15;61.79;95175.56;5100601;28;20511;-83
2023/07/09 09:07:31;;;;;;;3.15;2.90;;;;;;;28.14;64.55;95179.31;5099503;28;20027;-81
2023/07/09 09:10:00;;;;;;;5.47;3.55;;;;;;;27.80;64.84;95173.03;5084096;28;20165;-80
2023/07/09 09:12:29;;;;;;;4.10;3.03;;;;;;;27.45;61.79;95165.97;5100483;28;20026;-81
2023/07/09 09:15:04;;;;;;;4.13;2.95;;;;;;;27.86;66.95;95166.63;5100270;28;20553;-80
2023/07/09 09:17:33;;;;;;;3.85;3.55;;;;;;;27.61;64.99;95166.72;5100499;27;20083;-80
2023/07/09 09:20:03;;;;;;;5.47;3.13;;;;;;;27.53;60.88;95160.09;5098205;28;20080;-79
2023/07/09 09:22:48;;;;;;;6.32;2.95;;;;;;;27.28;62.91;95152.16;5100807;28;20039;-79
2023/07/09 09:25:14;;;;;;;6.47;3.67;;;;;;;28.07;66.97;95167.34;5084740;28;20488;-82
2023/07/09 09:27:39;;;;;;;3.83;3.47;;;;;;;28.31;67.85;95162.16;5098930;28;20099;-81
2023/07/09 09:30:15;;;;;;;4.43;3.45;;;;;;;28.11;66.06;95165.72;5086897;28;20151;-79
2023/07/09 09:32:45;;;;;;;3.88;3.22;;;;;;;28.27;66.43;95162.69;5091692;28;20042;-81
2023/07/09 09:35:15;;;;;;;7.55;3.58;;;;;;;28.51;67.92;95167.34;5085371;28;20049;-80
2023/07/09 09:37:45;;;;;;;5.45;2.75;;;;;;;27.78;68.66;95164.50;5088146;28;20462;-80
2023/07/09 09:40:10;;;;;;;3.75;2.90;;;;;;;27.61;67.48;95156.09;5088189;28;20040;-81
2023/07/09 09:42:36;;;;;;;6.25;3.50;;;;;;;27.52;63.75;95155.81;5098177;28;21064;-79
2023/07/09 09:45:02;;;;;;;4.18;3.78;;;;;;;26.87;62.60;95153.28;5091729;28;20459;-81
2023/07/09 09:47:30;;;;;;;4.28;3.72;;;;;;;27.74;69.85;95150.94;5084360;28;20050;-79
2023/07/09 09:49:55;;;;;;;4.28;3.95;;;;;;;27.90;73.11;95154.38;5099540;28;20040;-78
2023/07/09 09:52:26;;;;;;;3.53;2.97;;;;;;;27.89;67.79;95143.97;5100527;28;20051;-81
2023/07/09 09:54:55;;;;;;;5.93;3.55;;;;;;;27.91;68.92;95137.28;5091386;28;20015;-79
2023/07/09 09:57:23;;;;;;;3.92;3.20;;;;;;;27.82;66.28;95157.56;5097571;28;20485;-80
2023/07/09 09:59:49;;;;;;;5.72;3.60;;;;;;;28.18;69.09;95152.91;5091856;28;20043;-81
2023/07/09 10:02:17;;;;;;;3.83;3.00;;;;;;;28.21;71.99;95152.34;5099898;28;20566;-79
2023/07/09 10:04:44;;;;;;;3.42;3.10;;;;;;;28.22;64.88;95144.06;5094100;28;20816;-80
2023/07/09 10:07:19;;;;;;;4.93;3.22;;;;;;;28.35;66.80;95145.34;5097776;28;20107;-81
2023/07/09 10:09:51;;;;;;;3.78;3.45;;;;;;;28.18;66.09;95142.25;5097981;28;20024;-82
2023/07/09 10:12:36;;;;;;;5.35;3.95;;;;;;;28.20;70.12;95145.41;5098548;28;20034;-83
2023/07/09 10:15:04;;;;;;;3.53;3.22;;;;;;;28.16;70.09;95145.16;5096389;28;20485;-83
2023/07/09 10:17:33;;;;;;;3.60;3.30;;;;;;;27.74;62.38;95136.84;5089238;28;20042;-84
2023/07/09 10:20:18;;;;;;;5.05;3.50;;;;;;;27.87;65.51;95136.22;5099986;28;20031;-80
2023/07/09 10:22:57;;;;;;;4.05;3.13;;;;;;;28.12;70.54;95133.50;5089865;28;20032;-87
2023/07/09 10:25:37;;;;;;;4.85;3.33;;;;;;;28.20;67.66;95126.75;5081357;28;20039;-83
2023/07/09 10:28:09;;;;;;;3.80;3.50;;;;;;;28.36;65.16;95122.13;5101533;28;20730;-86
2023/07/09 10:31:06;;;;;;;4.38;4.07;;;;;;;28.33;66.46;95126.16;5102131;28;20028;-80
2023/07/09 10:33:53;;;;;;;3.38;3.10;;;;;;;28.34;61.91;95119.75;5102795;28;20580;-78
2023/07/09 10:36:38;;;;;;;7.32;3.78;;;;;;;27.93;58.11;95119.19;5091382;28;20036;-91
2023/07/09 10:39:07;;;;;;;4.93;3.28;;;;;;;28.08;71.12;95123.66;5090853;28;20447;-81
2023/07/09 10:41:35;;;;;;;4.38;3.33;;;;;;;28.19;68.07;95117.19;5102383;28;20032;-85
2023/07/09 10:44:15;;;;;;;3.03;2.83;;;;;;;28.26;62.65;95115.00;5100896;28;20203;-82
2023/07/09 10:46:43;;;;;;;5.18;3.10;;;;;;;28.31;65.70;95112.31;5096505;28;20046;-87
2023/07/09 10:49:14;;;;;;;3.20;3.00;;;;;;;28.42;63.04;95110.34;5096042;28;20056;-83
2023/07/09 10:51:43;;;;;;;5.07;3.00;;;;;;;28.53;66.68;95106.53;5093723;28;20042;-83
2023/07/09 10:54:29;;;;;;;4.78;3.00;;;;;;;28.61;61.46;95106.72;5065512;28;20843;-82
2023/07/09 10:57:00;;;;;;;2.97;2.70;;;;;;;28.83;65.26;95110.84;5064387;28;20039;-82
2023/07/09 10:59:34;;;;;;;4.82;2.95;;;;;;;28.87;63.64;95101.19;5056479;28;20503;-91
2023/07/09 11:02:26;;;;;;;3.00;2.80;;;;;;;28.75;62.74;95105.03;5056459;28;20044;-89
2023/07/09 11:05:00;;;;;;;3.45;3.22;;;;;;;28.44;57.77;95100.22;5051251;28;20051;-86
2023/07/09 11:07:41;;;;;;;3.25;3.05;;;;;;;28.35;59.43;95097.38;5067074;28;20115;-85
2023/07/09 11:10:17;;;;;;;3.58;3.08;;;;;;;28.56;65.46;95090.78;5050790;28;20028;-87
2023/07/09 11:12:46;;;;;;;4.30;3.17;;;;;;;28.76;60.69;95106.66;5052479;28;20125;-86
2023/07/09 11:15:16;;;;;;;3.28;2.55;;;;;;;28.55;57.06;95099.84;5061957;28;20028;-83
2023/07/09 11:17:46;;;;;;;4.15;2.92;;;;;;;28.59;60.46;95098.22;5052702;28;20051;-81
2023/07/09 11:20:24;;;;;;;7.63;3.58;;;;;;;28.68;64.80;95101.09;5055970;28;20504;-90
2023/07/09 11:22:53;;;;;;;3.35;3.05;;;;;;;28.78;63.08;95101.00;5053072;28;20119;-85
2023/07/09 11:25:27;;;;;;;;;;;;;;;28.78;63.69;95098.34;5059346;28;20082;-85
2023/07/09 11:28:00;;;;;;;2.83;2.63;;;;;;;28.93;65.61;95089.44;5052922;28;20023;-84
2023/07/09 11:30:28;;;;;;;4.80;2.80;;;;;;;28.93;66.36;95086.75;5050795;28;20094;-87
2023/07/09 11:33:01;;;;;;;4.40;3.20;;;;;;;29.19;64.90;95104.06;5063462;28;20600;-83
2023/07/09 11:35:29;;;;;;;5.47;2.95;;;;;;;28.93;56.88;95097.44;5060393;28;20064;-89
2023/07/09 11:37:55;;;;;;;4.15;3.28;;;;;;;29.14;55.72;95104.94;5047394;28;20067;-81
2023/07/09 11:40:22;;;;;;;3.67;2.80;;;;;;;28.71;55.51;95088.00;5053440;28;20248;-81
2023/07/09 11:42:55;;;;;;;5.18;2.90;;;;;;;29.10;54.54;95095.09;5061105;28;20032;-85